Main page
METAR-TAF:

METAR-TAF

Airports :

Augusto Severo International Airport

Natal, Rio Grande do Norte, Brazil

latitude: 05-55S, longitude: 035-15W, elevation: 52 m

Current weather observation

The report was made 28 minutes ago, at 11:00 UTC
Wind 10 kt from the South
Temperature 27°C
Humidity 79%
Pressure 1015 hPa
Visibility 10 km or more
Few clouds at a height of 2100 ft
Scattered clouds at a height of 10000 ft

METAR: SBNT 091100Z 18010KT 9999 FEW021 SCT100 27/23 Q1015

Time: 08:28 (11:28 UTC)

Forecast

The report was made 8 hours and 58 minutes ago, at 02:30 UTC
Forecast valid from 09 at 06 UTC to 09 at 18 UTC
Wind 7 kt from the South/Southwest
Visibility 10 km or more
Scattered clouds at a height of 2000 ft
Becoming
from 09 at 13 UTC to 09 at 15 UTC
Wind 15 kt from the East/Southeast
Scattered clouds at a height of 3000 ft
Few clouds at a height of 3500 ft, Towering cumulus.

TAF: SBNT 090230Z 0906/0918 20007KT 9999 SCT020 TN23/0909Z TX31/0917Z BECMG 0913/0915 12015KT SCT030 FEW035TCU RMK PGU

Weather observations and forecasts of more than 4000 airports (METAR and TAF reports).

The available stations are represented by yellow and red dots on the map.

Hover mouse over dot to see the name of the station.

Then click to see weather observations and forecasts.

To change the map : click on the green buttons with a black cross to zoom in, on the green button with a dash to zoom out, or on the green arrows for adjacent maps.


METAR-TAF: